METAR Formatted Surface Weather Observation
Issued by NWS

Home | Current Version | Previous Version | Text Only | Print | Product List | Glossary On
Versions: 1 2 3 4 5 6 7 8 9
874
SAUS41 KGYX 240102 COR
MTRNKT
METAR KNKT 240054Z 11003KT 10SM CLR 04/M01 A3059 RMK AO2 SLP353
T00391006



USA.gov is the U.S. government's official web portal to all federal, state and local government web resources and services.